Time;durP1;ratioP1;P1;durP2;ratioP2;P2;SDS_P1;SDS_P2;PMS_P1;PMS_P2;Temp;Humidity;BMP_temperature;BMP_pressure;BME280_temperature;BME280_humidity;BME280_pressure;Samples;Min_cycle;Max_cycle;Signal;HPM_P1;HPM_P2
2021/05/23 00:00:50;;;;;;;10.93;3.03;;;;;;;;;;13015177;22;20328;-83
2021/05/23 01:36:28;;;;;;;9.93;3.83;;;;;;;;;;13138222;22;20509;-81
2021/05/23 01:41:31;;;;;;;7.73;3.63;;;;;;;;;;13162981;22;20700;-83
2021/05/23 01:46:34;;;;;;;8.73;4.13;;;;;;;;;;13158704;22;20247;-82
2021/05/23 01:51:38;;;;;;;11.20;4.33;;;;;;;;;;13142006;22;20676;-85
2021/05/23 01:56:41;;;;;;;8.60;4.40;;;;;;;;;;13139603;22;20513;-84
2021/05/23 02:01:47;;;;;;;10.77;4.50;;;;;;;;;;13159997;22;20588;-83
2021/05/23 02:06:50;;;;;;;10.20;4.60;;;;;;;;;;13139557;22;20562;-82
2021/05/23 02:11:55;;;;;;;9.63;4.57;;;;;;;;;;13140107;22;20844;-84
2021/05/23 02:17:01;;;;;;;13.63;4.70;;;;;;;;;;13159055;22;20188;-83
2021/05/23 02:22:04;;;;;;;10.40;4.37;;;;;;;;;;13138207;22;20318;-82
2021/05/23 02:27:07;;;;;;;14.07;4.93;;;;;;;;;;13141081;22;20198;-84
2021/05/23 02:32:09;;;;;;;11.30;4.90;;;;;;;;;;13159191;22;20214;-82
2021/05/23 02:37:12;;;;;;;11.33;4.73;;;;;;;;;;13166549;22;20305;-81
2021/05/23 02:42:15;;;;;;;10.80;4.80;;;;;;;;;;13159758;22;20361;-82
2021/05/23 02:47:17;;;;;;;13.20;4.83;;;;;;;;;;13137731;22;20379;-81
2021/05/23 02:52:20;;;;;;;13.07;5.57;;;;;;;;;;13137256;22;20351;-82
2021/05/23 02:57:23;;;;;;;11.93;5.67;;;;;;;;;;13162289;22;20615;-82
2021/05/23 03:02:25;;;;;;;14.20;6.13;;;;;;;;;;13157214;22;20668;-82
2021/05/23 03:07:29;;;;;;;10.93;5.70;;;;;;;;;;13138621;22;20211;-84
2021/05/23 03:12:32;;;;;;;17.83;7.00;;;;;;;;;;13137398;22;20229;-83
2021/05/23 03:17:35;;;;;;;14.50;6.30;;;;;;;;;;13158211;22;20436;-83
2021/05/23 03:22:39;;;;;;;12.27;6.83;;;;;;;;;;13158247;22;20202;-83
2021/05/23 03:27:41;;;;;;;12.27;7.20;;;;;;;;;;13164118;22;20254;-82
2021/05/23 03:32:44;;;;;;;14.43;7.93;;;;;;;;;;13138552;22;20203;-82
2021/05/23 03:37:47;;;;;;;12.77;7.83;;;;;;;;;;13142833;22;20186;-82
2021/05/23 03:42:50;;;;;;;13.93;8.47;;;;;;;;;;13161579;22;20177;-81
2021/05/23 03:47:52;;;;;;;15.60;8.77;;;;;;;;;;13162357;22;20642;-81
2021/05/23 03:52:57;;;;;;;14.13;8.93;;;;;;;;;;13142224;22;20208;-83
2021/05/23 03:57:59;;;;;;;15.63;9.07;;;;;;;;;;13146253;22;20172;-82
2021/05/23 04:03:02;;;;;;;14.53;9.17;;;;;;;;;;13155934;22;20192;-81
2021/05/23 04:08:05;;;;;;;13.47;10.30;;;;;;;;;;13166684;22;20188;-83
2021/05/23 04:13:09;;;;;;;14.80;10.80;;;;;;;;;;13145064;22;20200;-85
2021/05/23 04:18:12;;;;;;;17.13;11.23;;;;;;;;;;13164158;22;20179;-83
2021/05/23 04:23:15;;;;;;;14.77;10.43;;;;;;;;;;13144370;22;20172;-83
2021/05/23 04:28:18;;;;;;;11.70;8.80;;;;;;;;;;13163378;22;20497;-81
2021/05/23 04:33:20;;;;;;;12.00;9.30;;;;;;;;;;13142124;22;20729;-82
2021/05/23 04:38:23;;;;;;;10.70;8.30;;;;;;;;;;13143217;22;20263;-84
2021/05/23 04:43:26;;;;;;;13.17;7.53;;;;;;;;;;13163852;22;20184;-82
2021/05/23 04:48:28;;;;;;;9.73;7.57;;;;;;;;;;13140125;22;20645;-82
2021/05/23 04:53:32;;;;;;;8.50;6.73;;;;;;;;;;13167329;22;20541;-83
2021/05/23 04:58:34;;;;;;;8.37;6.23;;;;;;;;;;13164356;22;20192;-81
2021/05/23 05:03:37;;;;;;;9.37;6.10;;;;;;;;;;13162213;22;20574;-81
2021/05/23 05:08:40;;;;;;;7.83;5.83;;;;;;;;;;13164114;22;20172;-81
2021/05/23 05:13:42;;;;;;;5.50;4.00;;;;;;;;;;13143568;22;20211;-81
2021/05/23 05:18:45;;;;;;;4.47;3.20;;;;;;;;;;13159828;22;20172;-82
2021/05/23 05:23:48;;;;;;;4.10;3.20;;;;;;;;;;13144123;22;20182;-83
2021/05/23 05:28:51;;;;;;;5.80;3.70;;;;;;;;;;13141230;22;20172;-83
2021/05/23 05:33:53;;;;;;;7.87;4.07;;;;;;;;;;13161993;22;20211;-83
2021/05/23 05:38:56;;;;;;;7.83;4.37;;;;;;;;;;13142925;22;20184;-81
2021/05/23 05:43:59;;;;;;;9.27;5.00;;;;;;;;;;13144049;22;20258;-82
2021/05/23 05:49:01;;;;;;;9.87;5.37;;;;;;;;;;13161151;22;20183;-83
2021/05/23 05:54:05;;;;;;;13.97;6.37;;;;;;;;;;13144868;22;20210;-81
2021/05/23 05:59:07;;;;;;;13.60;6.03;;;;;;;;;;13141335;22;20179;-81
2021/05/23 06:04:10;;;;;;;11.83;5.40;;;;;;;;;;13140774;22;20199;-81
2021/05/23 06:09:13;;;;;;;11.63;5.33;;;;;;;;;;13162703;22;20177;-81
2021/05/23 06:14:15;;;;;;;13.67;5.30;;;;;;;;;;13141323;22;20744;-82
2021/05/23 06:19:17;;;;;;;8.23;4.00;;;;;;;;;;13140996;22;20585;-83
2021/05/23 06:24:21;;;;;;;6.17;3.40;;;;;;;;;;13161746;22;20172;-83
2021/05/23 06:29:23;;;;;;;5.10;3.57;;;;;;;;;;13141768;22;20196;-83
2021/05/23 06:34:26;;;;;;;5.50;3.00;;;;;;;;;;13159455;22;20207;-81
2021/05/23 06:39:29;;;;;;;3.70;2.43;;;;;;;;;;13163951;22;20180;-83
2021/05/23 06:44:32;;;;;;;6.23;2.90;;;;;;;;;;13162558;22;20178;-81
2021/05/23 06:49:35;;;;;;;10.23;2.70;;;;;;;;;;13140691;22;20172;-81
2021/05/23 06:54:38;;;;;;;8.67;3.00;;;;;;;;;;13139446;22;20549;-81
2021/05/23 06:59:40;;;;;;;10.23;3.20;;;;;;;;;;13161560;22;20177;-82
2021/05/23 07:04:43;;;;;;;10.90;3.23;;;;;;;;;;13142761;22;20192;-81
2021/05/23 07:09:46;;;;;;;10.27;2.90;;;;;;;;;;13160124;22;20575;-81
2021/05/23 07:14:49;;;;;;;10.33;3.30;;;;;;;;;;13149211;22;20218;-81
2021/05/23 07:19:51;;;;;;;10.20;2.73;;;;;;;;;;13148311;22;20253;-81
2021/05/23 07:25:00;;;;;;;9.17;2.80;;;;;;;;;;13171101;22;20271;-82
2021/05/23 07:30:03;;;;;;;9.67;2.93;;;;;;;;;;13150687;22;20176;-81
2021/05/23 07:35:06;;;;;;;10.30;2.33;;;;;;;;;;13166246;22;20200;-81
2021/05/23 07:40:10;;;;;;;10.60;2.97;;;;;;;;;;13171767;22;20369;-83
2021/05/23 07:45:13;;;;;;;9.93;2.97;;;;;;;;;;13145824;22;20683;-82
2021/05/23 07:50:15;;;;;;;8.40;2.80;;;;;;;;;;13143638;22;20172;-78
2021/05/23 07:55:19;;;;;;;8.63;2.83;;;;;;;;;;13167056;22;20215;-80
2021/05/23 08:00:21;;;;;;;9.50;2.90;;;;;;;;;;13144306;22;20259;-78
2021/05/23 08:05:24;;;;;;;9.93;2.90;;;;;;;;;;13163017;22;20283;-80
2021/05/23 08:10:29;;;;;;;11.93;3.30;;;;;;;;;;13176244;22;20179;-87
2021/05/23 08:15:31;;;;;;;12.90;3.13;;;;;;;;;;13173837;22;20278;-87
2021/05/23 08:20:34;;;;;;;9.53;3.00;;;;;;;;;;13172321;22;20234;-88
2021/05/23 08:25:38;;;;;;;8.13;2.40;;;;;;;;;;13172198;22;20519;-88
2021/05/23 08:30:40;;;;;;;8.13;2.47;;;;;;;;;;13154575;22;20277;-85
2021/05/23 08:35:43;;;;;;;6.13;2.20;;;;;;;;;;13170845;22;20204;-84
2021/05/23 08:40:47;;;;;;;6.03;1.90;;;;;;;;;;13167121;22;20207;-80
2021/05/23 08:45:50;;;;;;;6.73;2.00;;;;;;;;;;13152184;22;20181;-83
2021/05/23 08:50:52;;;;;;;5.13;1.80;;;;;;;;;;13143187;22;20172;-79
2021/05/23 08:55:56;;;;;;;5.47;1.80;;;;;;;;;;13164323;22;20250;-78
2021/05/23 09:00:59;;;;;;;5.57;1.80;;;;;;;;;;13163936;22;20171;-80
2021/05/23 09:06:02;;;;;;;3.87;1.90;;;;;;;;;;13164608;22;20631;-78
2021/05/23 09:11:05;;;;;;;7.03;2.10;;;;;;;;;;13142836;22;20179;-76
2021/05/23 09:16:09;;;;;;;5.47;1.90;;;;;;;;;;13164094;22;20927;-78
2021/05/23 09:21:12;;;;;;;6.03;2.20;;;;;;;;;;13162627;22;20279;-81
2021/05/23 09:26:20;;;;;;;7.53;2.13;;;;;;;;;;13164368;22;20267;-80
2021/05/23 09:31:24;;;;;;;9.07;2.10;;;;;;;;;;13161405;22;20176;-80
2021/05/23 09:36:26;;;;;;;10.47;2.63;;;;;;;;;;13166136;22;20292;-78
2021/05/23 09:41:31;;;;;;;8.27;2.50;;;;;;;;;;13162824;22;20771;-76
2021/05/23 09:46:33;;;;;;;9.07;2.60;;;;;;;;;;13162262;22;20259;-76
2021/05/23 09:51:37;;;;;;;7.27;2.13;;;;;;;;;;13164573;22;20218;-77
2021/05/23 09:56:41;;;;;;;6.73;2.17;;;;;;;;;;13163639;22;20212;-77
2021/05/23 10:01:43;;;;;;;9.00;2.53;;;;;;;;;;13159057;22;20195;-80
2021/05/23 10:06:56;;;;;;;7.00;2.00;;;;;;;;;;13164719;22;20199;-79
2021/05/23 10:12:00;;;;;;;5.07;1.80;;;;;;;;;;13164449;22;20165;-81
2021/05/23 10:17:03;;;;;;;6.43;2.30;;;;;;;;;;13142013;22;20235;-80
2021/05/23 10:22:07;;;;;;;9.40;2.20;;;;;;;;;;13161770;22;20172;-80
2021/05/23 10:27:11;;;;;;;6.17;2.17;;;;;;;;;;13143109;22;20188;-80
2021/05/23 10:32:14;;;;;;;6.37;1.80;;;;;;;;;;13159669;22;20183;-80
2021/05/23 10:37:17;;;;;;;5.37;1.90;;;;;;;;;;13143669;22;20548;-80
2021/05/23 10:42:23;;;;;;;7.37;1.87;;;;;;;;;;13143388;22;20251;-80
2021/05/23 10:47:26;;;;;;;3.90;1.73;;;;;;;;;;13165510;22;20169;-80
2021/05/23 10:52:31;;;;;;;5.03;1.47;;;;;;;;;;13153325;22;20177;-80
2021/05/23 10:57:42;;;;;;;5.10;1.70;;;;;;;;;;13164887;22;20676;-81
2021/05/23 11:02:45;;;;;;;6.13;1.80;;;;;;;;;;13160476;22;20192;-80
2021/05/23 11:07:54;;;;;;;3.23;1.47;;;;;;;;;;13166979;22;20172;-79
2021/05/23 11:12:59;;;;;;;6.03;1.70;;;;;;;;;;13141506;22;20169;-79
2021/05/23 11:18:05;;;;;;;6.80;1.50;;;;;;;;;;13164123;22;20196;-81
2021/05/23 11:23:08;;;;;;;7.53;1.43;;;;;;;;;;13163243;22;20176;-82
2021/05/23 11:28:11;;;;;;;7.57;1.40;;;;;;;;;;13163639;22;20177;-79
2021/05/23 11:33:13;;;;;;;6.90;1.70;;;;;;;;;;13138522;22;20306;-78
2021/05/23 11:38:16;;;;;;;3.70;1.50;;;;;;;;;;13156190;22;20242;-79
2021/05/23 11:43:20;;;;;;;7.30;1.83;;;;;;;;;;13162918;22;20169;-79
2021/05/23 11:48:33;;;;;;;3.20;1.40;;;;;;;;;;13167653;22;20172;-80
2021/05/23 11:53:39;;;;;;;4.03;1.50;;;;;;;;;;13144771;22;20327;-75
2021/05/23 11:58:45;;;;;;;5.97;1.67;;;;;;;;;;13167670;22;20176;-79
2021/05/23 12:03:54;;;;;;;3.30;1.30;;;;;;;;;;13162472;22;20235;-78
2021/05/23 12:09:12;;;;;;;4.43;1.33;;;;;;;;;;13170561;22;20576;-80
2021/05/23 12:14:22;;;;;;;3.80;1.40;;;;;;;;;;13165838;22;20295;-78
2021/05/23 12:19:44;;;;;;;4.57;1.73;;;;;;;;;;13161509;22;20203;-78
2021/05/23 12:24:50;;;;;;;5.17;1.83;;;;;;;;;;13163883;22;20406;-79
2021/05/23 12:29:53;;;;;;;7.00;1.73;;;;;;;;;;13164516;22;20176;-81
2021/05/23 12:34:56;;;;;;;5.07;1.50;;;;;;;;;;13160304;22;20196;-81
2021/05/23 12:39:59;;;;;;;6.47;1.50;;;;;;;;;;13164902;22;20208;-80
2021/05/23 12:45:06;;;;;;;3.43;1.43;;;;;;;;;;13159824;22;20759;-79
2021/05/23 12:50:09;;;;;;;9.97;1.90;;;;;;;;;;13162262;22;20218;-79
2021/05/23 12:55:15;;;;;;;8.50;2.00;;;;;;;;;;13159884;22;20749;-80
2021/05/23 13:00:20;;;;;;;5.43;1.70;;;;;;;;;;13162352;22;20172;-79
2021/05/23 13:05:22;;;;;;;4.40;1.70;;;;;;;;;;13136211;22;20895;-79
2021/05/23 13:10:32;;;;;;;3.10;1.57;;;;;;;;;;13165743;22;20187;-79
2021/05/23 13:15:36;;;;;;;6.30;1.90;;;;;;;;;;13164713;22;20528;-79
2021/05/23 13:20:39;;;;;;;5.27;1.90;;;;;;;;;;13164175;22;20182;-80
2021/05/23 13:25:41;;;;;;;6.73;1.73;;;;;;;;;;13164474;22;20215;-79
2021/05/23 13:30:45;;;;;;;4.67;1.80;;;;;;;;;;13139042;22;20271;-80
2021/05/23 13:35:47;;;;;;;7.57;2.30;;;;;;;;;;13141327;22;20974;-80
2021/05/23 13:40:49;;;;;;;6.03;1.70;;;;;;;;;;13140074;22;20180;-80
2021/05/23 13:45:53;;;;;;;4.97;2.00;;;;;;;;;;13161739;22;20279;-80
2021/05/23 13:50:56;;;;;;;5.80;1.90;;;;;;;;;;13160996;22;20172;-80
2021/05/23 13:55:58;;;;;;;4.93;2.00;;;;;;;;;;13166426;22;20211;-81
2021/05/23 14:01:02;;;;;;;2.97;1.60;;;;;;;;;;13162409;22;20180;-81
2021/05/23 14:06:05;;;;;;;7.10;1.50;;;;;;;;;;13166295;22;20275;-80
2021/05/23 14:11:08;;;;;;;4.27;1.50;;;;;;;;;;13163476;22;20199;-82
2021/05/23 14:16:11;;;;;;;4.57;1.70;;;;;;;;;;13162862;22;20310;-80
2021/05/23 14:21:13;;;;;;;6.97;1.67;;;;;;;;;;13139466;22;20255;-80
2021/05/23 14:26:16;;;;;;;5.47;1.60;;;;;;;;;;13162191;22;20208;-79
2021/05/23 14:31:21;;;;;;;4.37;1.93;;;;;;;;;;13158897;22;20932;-79
2021/05/23 14:36:28;;;;;;;3.90;1.47;;;;;;;;;;13161501;22;20212;-80
2021/05/23 14:41:31;;;;;;;3.97;1.70;;;;;;;;;;13159666;22;20168;-80
2021/05/23 14:46:34;;;;;;;7.73;1.70;;;;;;;;;;13154617;22;20215;-81
2021/05/23 14:51:37;;;;;;;4.57;1.60;;;;;;;;;;13141334;22;20172;-82
2021/05/23 14:56:39;;;;;;;4.53;1.73;;;;;;;;;;13136961;22;20204;-82
2021/05/23 15:01:42;;;;;;;3.77;1.67;;;;;;;;;;13159506;22;20192;-81
2021/05/23 15:06:45;;;;;;;3.80;1.50;;;;;;;;;;13136531;22;20791;-81
2021/05/23 15:11:47;;;;;;;4.63;1.50;;;;;;;;;;13140200;22;20176;-79
2021/05/23 15:16:50;;;;;;;7.37;1.60;;;;;;;;;;13157997;22;20196;-80
2021/05/23 15:21:53;;;;;;;2.80;1.20;;;;;;;;;;13163459;22;20176;-80
2021/05/23 15:26:59;;;;;;;4.83;1.70;;;;;;;;;;13163899;22;20172;-80
2021/05/23 15:32:03;;;;;;;3.97;1.63;;;;;;;;;;13162906;22;20226;-80
2021/05/23 15:37:06;;;;;;;4.80;1.70;;;;;;;;;;13162272;22;20223;-80
2021/05/23 15:42:09;;;;;;;6.60;1.63;;;;;;;;;;13166967;22;20259;-79
2021/05/23 15:47:12;;;;;;;2.73;1.40;;;;;;;;;;13137967;22;20199;-80
2021/05/23 15:52:25;;;;;;;3.77;1.40;;;;;;;;;;13165788;22;20234;-79
2021/05/23 15:57:31;;;;;;;4.70;1.70;;;;;;;;;;13161339;22;20235;-78
2021/05/23 16:02:35;;;;;;;8.33;1.90;;;;;;;;;;13163445;22;20192;-90
2021/05/23 16:07:38;;;;;;;4.13;1.50;;;;;;;;;;13164860;22;20173;-78
2021/05/23 16:12:41;;;;;;;5.10;1.40;;;;;;;;;;13165293;22;20172;-81
2021/05/23 16:17:44;;;;;;;5.07;1.50;;;;;;;;;;13163098;22;20278;-79
2021/05/23 16:22:47;;;;;;;4.07;1.50;;;;;;;;;;13164980;22;20178;-81
2021/05/23 16:27:50;;;;;;;3.07;1.50;;;;;;;;;;13167027;22;20164;-80
2021/05/23 16:32:54;;;;;;;7.93;2.00;;;;;;;;;;13161562;22;20495;-80
2021/05/23 16:37:56;;;;;;;3.43;1.40;;;;;;;;;;13169215;22;20680;-79
2021/05/23 16:43:00;;;;;;;5.80;2.07;;;;;;;;;;13142641;22;20371;-83
2021/05/23 16:48:04;;;;;;;3.30;1.60;;;;;;;;;;13145656;22;20208;-83
2021/05/23 16:53:06;;;;;;;3.77;1.60;;;;;;;;;;13166294;22;20180;-80
2021/05/23 16:58:09;;;;;;;5.70;1.97;;;;;;;;;;13143006;22;20212;-83
2021/05/23 17:03:12;;;;;;;3.77;1.70;;;;;;;;;;13141336;22;20192;-81
2021/05/23 17:08:15;;;;;;;4.53;1.50;;;;;;;;;;13144422;22;20173;-81
2021/05/23 17:13:17;;;;;;;3.17;1.50;;;;;;;;;;13165169;22;20176;-80
2021/05/23 17:18:21;;;;;;;4.20;1.53;;;;;;;;;;13161819;22;20412;-80
2021/05/23 17:23:23;;;;;;;3.27;1.53;;;;;;;;;;13163291;22;20204;-81
2021/05/23 17:28:25;;;;;;;4.90;1.73;;;;;;;;;;13165487;22;20181;-81
2021/05/23 17:33:30;;;;;;;2.97;1.40;;;;;;;;;;13160714;22;20213;-80
2021/05/23 17:38:32;;;;;;;2.47;1.77;;;;;;;;;;13165740;22;20295;-81
2021/05/23 17:43:35;;;;;;;3.53;1.70;;;;;;;;;;13160726;22;20176;-79
2021/05/23 17:48:38;;;;;;;4.33;1.90;;;;;;;;;;13161207;22;20183;-80
2021/05/23 17:53:40;;;;;;;2.73;1.40;;;;;;;;;;13160315;22;20179;-81
2021/05/23 17:58:43;;;;;;;2.77;1.47;;;;;;;;;;13161376;22;20987;-80
2021/05/23 18:03:49;;;;;;;4.47;1.90;;;;;;;;;;13157985;22;20192;-79
2021/05/23 18:08:52;;;;;;;4.73;1.80;;;;;;;;;;13151364;22;20182;-80
2021/05/23 18:13:54;;;;;;;3.63;1.63;;;;;;;;;;13161249;22;20563;-80
2021/05/23 18:18:58;;;;;;;4.27;1.70;;;;;;;;;;13158103;22;20191;-81
2021/05/23 18:24:02;;;;;;;4.20;1.53;;;;;;;;;;13160204;22;21069;-78
2021/05/23 18:29:08;;;;;;;2.77;1.30;;;;;;;;;;13163714;22;20176;-79
2021/05/23 18:34:17;;;;;;;4.27;1.60;;;;;;;;;;13155656;22;20173;-79
2021/05/23 18:39:24;;;;;;;3.63;1.83;;;;;;;;;;13163769;22;20210;-80
2021/05/23 18:44:27;;;;;;;3.83;1.43;;;;;;;;;;13158284;22;20175;-79
2021/05/23 18:49:31;;;;;;;4.73;1.60;;;;;;;;;;13154664;22;20229;-80
2021/05/23 18:54:33;;;;;;;2.80;1.77;;;;;;;;;;13160472;22;20255;-80
2021/05/23 18:59:36;;;;;;;2.10;1.30;;;;;;;;;;13166260;22;20279;-80
2021/05/23 19:04:40;;;;;;;3.10;1.40;;;;;;;;;;13138208;22;20203;-79
2021/05/23 19:09:43;;;;;;;3.33;1.20;;;;;;;;;;13165921;22;20187;-79
2021/05/23 19:14:45;;;;;;;5.80;1.40;;;;;;;;;;13144738;22;20196;-80
2021/05/23 19:19:49;;;;;;;3.23;1.37;;;;;;;;;;13161623;22;20192;-80
2021/05/23 19:24:51;;;;;;;2.87;1.50;;;;;;;;;;13146542;22;20176;-80
2021/05/23 19:29:53;;;;;;;6.13;1.47;;;;;;;;;;13164037;22;20663;-80
2021/05/23 19:34:58;;;;;;;3.40;1.53;;;;;;;;;;13164238;22;20176;-81
2021/05/23 19:40:00;;;;;;;6.17;1.60;;;;;;;;;;13163642;22;20621;-81
2021/05/23 19:45:03;;;;;;;2.97;1.70;;;;;;;;;;13164348;22;20226;-78
2021/05/23 19:50:08;;;;;;;2.97;1.30;;;;;;;;;;13161799;22;20184;-79
2021/05/23 19:55:13;;;;;;;3.30;1.30;;;;;;;;;;13143754;22;20251;-79
2021/05/23 20:00:16;;;;;;;2.27;1.33;;;;;;;;;;13161803;22;20168;-80
2021/05/23 20:05:19;;;;;;;3.43;1.50;;;;;;;;;;13161023;22;20199;-80
2021/05/23 20:10:22;;;;;;;3.07;1.57;;;;;;;;;;13167129;22;20176;-79
2021/05/23 20:15:27;;;;;;;2.73;1.63;;;;;;;;;;13167408;22;20168;-80
2021/05/23 20:20:33;;;;;;;4.30;1.87;;;;;;;;;;13164683;22;20165;-80
2021/05/23 20:25:36;;;;;;;3.23;1.73;;;;;;;;;;13145709;22;20614;-78
2021/05/23 20:30:38;;;;;;;6.00;1.90;;;;;;;;;;13166537;22;20459;-79
2021/05/23 20:35:42;;;;;;;3.50;1.90;;;;;;;;;;13166027;22;20231;-79
2021/05/23 20:40:44;;;;;;;3.47;1.83;;;;;;;;;;13167350;22;20176;-80
2021/05/23 20:45:47;;;;;;;5.77;2.10;;;;;;;;;;13166230;22;20180;-81
2021/05/23 20:50:50;;;;;;;3.33;1.67;;;;;;;;;;13166066;22;20948;-79
2021/05/23 20:55:53;;;;;;;5.70;1.70;;;;;;;;;;13167534;22;20212;-79
2021/05/23 21:00:56;;;;;;;3.10;1.70;;;;;;;;;;13166030;22;20547;-79
2021/05/23 21:06:00;;;;;;;3.50;1.80;;;;;;;;;;13169222;22;20564;-79
2021/05/23 21:11:02;;;;;;;3.83;1.60;;;;;;;;;;13166961;22;20709;-78
2021/05/23 21:16:06;;;;;;;3.67;1.60;;;;;;;;;;13163552;22;20560;-79
2021/05/23 21:21:09;;;;;;;5.20;2.03;;;;;;;;;;13165338;22;20177;-79
2021/05/23 21:26:12;;;;;;;3.50;1.83;;;;;;;;;;13168578;22;20233;-80
2021/05/23 21:31:14;;;;;;;3.27;1.70;;;;;;;;;;13150525;22;20966;-79
2021/05/23 21:36:18;;;;;;;4.37;1.60;;;;;;;;;;13167716;22;20552;-79
2021/05/23 21:41:20;;;;;;;3.43;1.63;;;;;;;;;;13143897;22;20168;-79
2021/05/23 21:46:24;;;;;;;5.23;1.90;;;;;;;;;;13166129;22;20180;-79
2021/05/23 21:51:27;;;;;;;4.40;1.90;;;;;;;;;;13166326;22;20176;-80
2021/05/23 21:56:30;;;;;;;5.00;2.00;;;;;;;;;;13167427;22;20310;-79
2021/05/23 22:01:32;;;;;;;3.23;1.93;;;;;;;;;;13164630;22;20172;-80
2021/05/23 22:06:36;;;;;;;4.37;2.03;;;;;;;;;;13147632;22;20581;-78
2021/05/23 22:11:38;;;;;;;4.47;2.23;;;;;;;;;;13164807;22;20169;-79
2021/05/23 22:16:40;;;;;;;5.33;2.50;;;;;;;;;;13142410;22;20200;-79
2021/05/23 22:21:44;;;;;;;4.00;2.10;;;;;;;;;;13156176;22;20176;-78
2021/05/23 22:26:46;;;;;;;3.27;1.70;;;;;;;;;;13164863;22;20176;-80
2021/05/23 22:31:49;;;;;;;2.70;1.37;;;;;;;;;;13141929;22;20179;-79
2021/05/23 22:36:52;;;;;;;2.10;1.47;;;;;;;;;;13148608;22;20287;-79
2021/05/23 22:41:55;;;;;;;3.20;1.70;;;;;;;;;;13165926;22;20622;-79
2021/05/23 22:46:58;;;;;;;4.10;1.57;;;;;;;;;;13162650;22;20182;-78
2021/05/23 22:52:02;;;;;;;3.87;1.50;;;;;;;;;;13144494;22;20501;-79
2021/05/23 22:57:05;;;;;;;2.20;1.40;;;;;;;;;;13162661;22;20204;-79
2021/05/23 23:02:08;;;;;;;3.50;1.40;;;;;;;;;;13161787;22;20203;-80
2021/05/23 23:07:11;;;;;;;4.40;1.50;;;;;;;;;;13162970;22;20179;-79
2021/05/23 23:12:13;;;;;;;3.07;1.50;;;;;;;;;;13164599;22;20182;-80
2021/05/23 23:17:16;;;;;;;3.70;1.50;;;;;;;;;;13159825;22;20262;-79
2021/05/23 23:22:19;;;;;;;2.90;1.43;;;;;;;;;;13164781;22;20793;-79
2021/05/23 23:27:21;;;;;;;3.13;1.50;;;;;;;;;;13141757;22;20176;-79
2021/05/23 23:32:24;;;;;;;3.07;1.50;;;;;;;;;;13162958;22;20173;-79
2021/05/23 23:37:27;;;;;;;2.07;1.40;;;;;;;;;;13158122;22;20960;-80
2021/05/23 23:42:30;;;;;;;3.07;1.20;;;;;;;;;;13143808;22;20176;-79
2021/05/23 23:47:32;;;;;;;4.07;1.30;;;;;;;;;;13165440;22;20173;-79
2021/05/23 23:52:37;;;;;;;3.40;1.50;;;;;;;;;;13148623;22;20177;-79
2021/05/23 23:57:40;;;;;;;4.47;1.37;;;;;;;;;;13145292;22;20219;-79
